Security, Colorado
Current Conditions -  °F | °C
As of 5:23 AM on Sunday 23 Nov 2014 (Local Time) from KCOS Reporting Station
Light Snow Light Snow  
Wind Chill: 22°   Ceiling: 2600
Heat Index: 34°   Visibility: 5mi
Dew Point: 28°   Wind: 24mph
Humidity: 79%   Direction: 10°N
Pressure: 29.68"   Gusts: 32mph
Location:  38.7421°N, 104.639°W
Report Text: KCOS 231223Z 01021G28KT 5SM -SN BR OVC026 01/M02 A2968 RMK AO2 PK WND 01028/1223 P0000 T00111022
Loading
Personal Weather Stations






























Interactive Weather Map New forecast layout! Learn more

10-Day Weather Forecast

Advertisements
Track Severe Weather on mobile